sensor_id;sensor_type;location;lat;lon;timestamp;pressure;altitude;pressure_sealevel;temperature;humidity
71567;BME280;59403;47.456;19.120;2023-04-01T00:01:13;99043.84;;;9.78;100.00
71567;BME280;59403;47.456;19.120;2023-04-01T00:03:40;99044.56;;;9.72;100.00
71567;BME280;59403;47.456;19.120;2023-04-01T00:06:07;99040.03;;;9.66;100.00
71567;BME280;59403;47.456;19.120;2023-04-01T00:08:34;99037.19;;;9.67;100.00
71567;BME280;59403;47.456;19.120;2023-04-01T00:11:01;99029.47;;;9.66;100.00
71567;BME280;59403;47.456;19.120;2023-04-01T00:13:28;99029.66;;;9.64;100.00
71567;BME280;59403;47.456;19.120;2023-04-01T00:15:56;99033.09;;;9.65;100.00
71567;BME280;59403;47.456;19.120;2023-04-01T00:18:23;99035.72;;;9.65;100.00
71567;BME280;59403;47.456;19.120;2023-04-01T00:20:51;99029.34;;;9.59;100.00
71567;BME280;59403;47.456;19.120;2023-04-01T00:23:19;99033.47;;;9.62;100.00
71567;BME280;59403;47.456;19.120;2023-04-01T00:25:46;99029.00;;;9.62;100.00
71567;BME280;59403;47.456;19.120;2023-04-01T00:28:16;99027.09;;;9.56;100.00
71567;BME280;59403;47.456;19.120;2023-04-01T00:30:43;99032.19;;;9.58;100.00
71567;BME280;59403;47.456;19.120;2023-04-01T00:33:12;99031.72;;;9.54;100.00
71567;BME280;59403;47.456;19.120;2023-04-01T00:35:39;99026.00;;;9.51;100.00
71567;BME280;59403;47.456;19.120;2023-04-01T00:38:07;99016.63;;;9.48;100.00
71567;BME280;59403;47.456;19.120;2023-04-01T00:40:38;99008.69;;;9.48;100.00
71567;BME280;59403;47.456;19.120;2023-04-01T00:43:11;99015.63;;;9.49;100.00
71567;BME280;59403;47.456;19.120;2023-04-01T00:45:40;99012.69;;;9.44;100.00
71567;BME280;59403;47.456;19.120;2023-04-01T00:48:12;99011.69;;;9.45;100.00
71567;BME280;59403;47.456;19.120;2023-04-01T00:50:44;99009.41;;;9.42;100.00
71567;BME280;59403;47.456;19.120;2023-04-01T00:53:13;99008.06;;;9.46;100.00
71567;BME280;59403;47.456;19.120;2023-04-01T00:55:45;99007.59;;;9.43;100.00
71567;BME280;59403;47.456;19.120;2023-04-01T00:58:17;99007.41;;;9.44;100.00
71567;BME280;59403;47.456;19.120;2023-04-01T01:00:46;99008.63;;;9.42;100.00
71567;BME280;59403;47.456;19.120;2023-04-01T01:03:16;99007.16;;;9.39;100.00
71567;BME280;59403;47.456;19.120;2023-04-01T01:05:59;99008.50;;;9.35;100.00
71567;BME280;59403;47.456;19.120;2023-04-01T01:08:39;99006.88;;;9.34;100.00
71567;BME280;59403;47.456;19.120;2023-04-01T01:11:11;99009.72;;;9.33;100.00
71567;BME280;59403;47.456;19.120;2023-04-01T01:13:43;99015.00;;;9.33;100.00
71567;BME280;59403;47.456;19.120;2023-04-01T01:16:15;99012.34;;;9.33;100.00
71567;BME280;59403;47.456;19.120;2023-04-01T01:18:52;99013.72;;;9.29;100.00
71567;BME280;59403;47.456;19.120;2023-04-01T01:24:49;99013.53;;;9.30;100.00
71567;BME280;59403;47.456;19.120;2023-04-01T01:27:20;99013.72;;;9.29;100.00
71567;BME280;59403;47.456;19.120;2023-04-01T01:30:08;99001.53;;;9.28;100.00
71567;BME280;59403;47.456;19.120;2023-04-01T01:32:59;99010.87;;;9.30;100.00
71567;BME280;59403;47.456;19.120;2023-04-01T01:35:32;99001.16;;;9.31;100.00
71567;BME280;59403;47.456;19.120;2023-04-01T01:38:04;99000.31;;;9.30;100.00
71567;BME280;59403;47.456;19.120;2023-04-01T01:40:34;98994.06;;;9.31;100.00
71567;BME280;59403;47.456;19.120;2023-04-01T01:43:05;98991.56;;;9.30;100.00
71567;BME280;59403;47.456;19.120;2023-04-01T01:45:35;98990.75;;;9.29;100.00
71567;BME280;59403;47.456;19.120;2023-04-01T01:48:05;98990.94;;;9.28;100.00
71567;BME280;59403;47.456;19.120;2023-04-01T01:50:36;98993.59;;;9.28;100.00
71567;BME280;59403;47.456;19.120;2023-04-01T01:53:06;98994.75;;;9.25;100.00
71567;BME280;59403;47.456;19.120;2023-04-01T01:55:35;98998.69;;;9.29;100.00
71567;BME280;59403;47.456;19.120;2023-04-01T01:58:07;98993.41;;;9.29;100.00
71567;BME280;59403;47.456;19.120;2023-04-01T02:00:37;98991.56;;;9.30;100.00
71567;BME280;59403;47.456;19.120;2023-04-01T02:03:06;98992.56;;;9.29;100.00
71567;BME280;59403;47.456;19.120;2023-04-01T02:05:33;99001.16;;;9.31;100.00
71567;BME280;59403;47.456;19.120;2023-04-01T02:08:06;98990.75;;;9.29;100.00
71567;BME280;59403;47.456;19.120;2023-04-01T02:10:36;98993.59;;;9.28;100.00
71567;BME280;59403;47.456;19.120;2023-04-01T02:13:09;98998.06;;;9.27;100.00
71567;BME280;59403;47.456;19.120;2023-04-01T02:15:41;98994.56;;;9.27;100.00
71567;BME280;59403;47.456;19.120;2023-04-01T02:18:10;98992.31;;;9.24;100.00
71567;BME280;59403;47.456;19.120;2023-04-01T02:20:39;98986.00;;;9.25;100.00
71567;BME280;59403;47.456;19.120;2023-04-01T02:23:09;98985.03;;;9.26;100.00
71567;BME280;59403;47.456;19.120;2023-04-01T02:25:37;98974.00;;;9.22;100.00
71567;BME280;59403;47.456;19.120;2023-04-01T02:28:06;98982.56;;;9.24;100.00
71567;BME280;59403;47.456;19.120;2023-04-01T02:30:36;98983.75;;;9.22;100.00
71567;BME280;59403;47.456;19.120;2023-04-01T02:33:06;98978.38;;;9.15;100.00
71567;BME280;59403;47.456;19.120;2023-04-01T02:35:34;98971.28;;;9.15;100.00
71567;BME280;59403;47.456;19.120;2023-04-01T02:38:03;98972.28;;;9.14;100.00
71567;BME280;59403;47.456;19.120;2023-04-01T02:40:42;98974.09;;;9.14;100.00
71567;BME280;59403;47.456;19.120;2023-04-01T02:43:10;98975.75;;;9.15;100.00
71567;BME280;59403;47.456;19.120;2023-04-01T02:45:38;98972.44;;;9.13;100.00
71567;BME280;59403;47.456;19.120;2023-04-01T02:48:07;98965.69;;;9.10;100.00
71567;BME280;59403;47.456;19.120;2023-04-01T02:50:34;98974.25;;;9.12;100.00
71567;BME280;59403;47.456;19.120;2023-04-01T02:53:02;98972.28;;;9.14;100.00
71567;BME280;59403;47.456;19.120;2023-04-01T02:55:34;98974.81;;;9.08;100.00
71567;BME280;59403;47.456;19.120;2023-04-01T02:58:04;98974.81;;;9.08;100.00
71567;BME280;59403;47.456;19.120;2023-04-01T03:00:31;98968.72;;;9.07;100.00
71567;BME280;59403;47.456;19.120;2023-04-01T03:02:58;98977.66;;;9.06;100.00
71567;BME280;59403;47.456;19.120;2023-04-01T03:05:26;98974.00;;;9.07;100.00
71567;BME280;59403;47.456;19.120;2023-04-01T03:07:53;98968.91;;;9.06;100.00
71567;BME280;59403;47.456;19.120;2023-04-01T03:10:20;98975.19;;;9.05;100.00
71567;BME280;59403;47.456;19.120;2023-04-01T03:12:48;98980.63;;;9.03;100.00
71567;BME280;59403;47.456;19.120;2023-04-01T03:15:18;98981.28;;;9.05;100.00
71567;BME280;59403;47.456;19.120;2023-04-01T03:17:45;98976.38;;;9.02;100.00
71567;BME280;59403;47.456;19.120;2023-04-01T03:20:12;98964.78;;;9.03;100.00
71567;BME280;59403;47.456;19.120;2023-04-01T03:22:40;98967.81;;;9.00;100.00
71567;BME280;59403;47.456;19.120;2023-04-01T03:25:08;98964.87;;;8.95;100.00
71567;BME280;59403;47.456;19.120;2023-04-01T03:27:34;98975.62;;;8.94;100.00
71567;BME280;59403;47.456;19.120;2023-04-01T03:30:02;98976.66;;;8.93;100.00
71567;BME280;59403;47.456;19.120;2023-04-01T03:32:30;98977.53;;;8.85;100.00
71567;BME280;59403;47.456;19.120;2023-04-01T03:34:57;98984.63;;;8.85;100.00
71567;BME280;59403;47.456;19.120;2023-04-01T03:37:24;98984.63;;;8.85;100.00
71567;BME280;59403;47.456;19.120;2023-04-01T03:39:51;98998.66;;;8.85;100.00
71567;BME280;59403;47.456;19.120;2023-04-01T03:42:19;98988.37;;;8.90;100.00
71567;BME280;59403;47.456;19.120;2023-04-01T03:44:45;98987.37;;;8.91;100.00
71567;BME280;59403;47.456;19.120;2023-04-01T03:47:12;99000.94;;;8.88;100.00
71567;BME280;59403;47.456;19.120;2023-04-01T03:49:41;99007.41;;;8.86;100.00
71567;BME280;59403;47.456;19.120;2023-04-01T03:52:09;99001.94;;;8.87;100.00
71567;BME280;59403;47.456;19.120;2023-04-01T03:54:37;99005.94;;;8.83;100.00
71567;BME280;59403;47.456;19.120;2023-04-01T03:57:04;99010.56;;;8.81;100.00
71567;BME280;59403;47.456;19.120;2023-04-01T03:59:31;99012.03;;;8.84;100.00
71567;BME280;59403;47.456;19.120;2023-04-01T04:01:58;99012.94;;;8.76;100.00
71567;BME280;59403;47.456;19.120;2023-04-01T04:04:26;99011.41;;;8.82;100.00
71567;BME280;59403;47.456;19.120;2023-04-01T04:06:55;99007.66;;;8.76;100.00
71567;BME280;59403;47.456;19.120;2023-04-01T04:09:22;99015.75;;;8.75;100.00
71567;BME280;59403;47.456;19.120;2023-04-01T04:11:49;99012.94;;;8.76;100.00
71567;BME280;59403;47.456;19.120;2023-04-01T04:14:16;99010.84;;;8.72;100.00
71567;BME280;59403;47.456;19.120;2023-04-01T04:16:43;99015.47;;;8.70;100.00
71567;BME280;59403;47.456;19.120;2023-04-01T04:19:10;99013.19;;;8.67;100.00
71567;BME280;59403;47.456;19.120;2023-04-01T04:21:37;99024.09;;;8.64;100.00
71567;BME280;59403;47.456;19.120;2023-04-01T04:24:05;99019.81;;;8.63;100.00
71567;BME280;59403;47.456;19.120;2023-04-01T04:26:32;99014.91;;;8.60;100.00
71567;BME280;59403;47.456;19.120;2023-04-01T04:29:00;99011.91;;;8.63;100.00
71567;BME280;59403;47.456;19.120;2023-04-01T04:31:27;99004.16;;;8.61;100.00
71567;BME280;59403;47.456;19.120;2023-04-01T04:33:54;99007.78;;;8.60;100.00
71567;BME280;59403;47.456;19.120;2023-04-01T04:36:22;99007.12;;;8.58;100.00
71567;BME280;59403;47.456;19.120;2023-04-01T04:38:49;99002.22;;;8.55;100.00
71567;BME280;59403;47.456;19.120;2023-04-01T04:41:18;99000.88;;;8.59;100.00
71567;BME280;59403;47.456;19.120;2023-04-01T04:43:51;99001.87;;;8.58;100.00
71567;BME280;59403;47.456;19.120;2023-04-01T04:46:19;98994.13;;;8.57;100.00
71567;BME280;59403;47.456;19.120;2023-04-01T04:48:46;98996.78;;;8.57;100.00
71567;BME280;59403;47.456;19.120;2023-04-01T04:51:14;98994.41;;;8.62;100.00
71567;BME280;59403;47.456;19.120;2023-04-01T04:53:41;98994.41;;;8.62;100.00
71567;BME280;59403;47.456;19.120;2023-04-01T04:56:08;98997.06;;;8.62;100.00
71567;BME280;59403;47.456;19.120;2023-04-01T04:58:37;98996.06;;;8.63;100.00
71567;BME280;59403;47.456;19.120;2023-04-01T05:01:09;99000.53;;;8.62;100.00
71567;BME280;59403;47.456;19.120;2023-04-01T05:03:36;98996.25;;;8.61;100.00
71567;BME280;59403;47.456;19.120;2023-04-01T05:06:04;99002.97;;;8.64;100.00
71567;BME280;59403;47.456;19.120;2023-04-01T05:08:31;98998.16;;;8.67;100.00
71567;BME280;59403;47.456;19.120;2023-04-01T05:10:59;98996.34;;;8.68;100.00
71567;BME280;59403;47.456;19.120;2023-04-01T05:13:26;98987.09;;;8.72;100.00
71567;BME280;59403;47.456;19.120;2023-04-01T05:15:55;98998.09;;;8.75;100.00
71567;BME280;59403;47.456;19.120;2023-04-01T05:18:22;98993.28;;;8.79;100.00
71567;BME280;59403;47.456;19.120;2023-04-01T05:20:50;99004.13;;;8.84;100.00
71567;BME280;59403;47.456;19.120;2023-04-01T05:23:18;98998.28;;;8.88;100.00
71567;BME280;59403;47.456;19.120;2023-04-01T05:25:46;99006.03;;;8.90;100.00
71567;BME280;59403;47.456;19.120;2023-04-01T05:28:14;99012.41;;;8.95;100.00
71567;BME280;59403;47.456;19.120;2023-04-01T05:30:42;99012.16;;;9.05;100.00
71567;BME280;59403;47.456;19.120;2023-04-01T05:33:11;99011.06;;;9.29;100.00
71567;BME280;59403;47.456;19.120;2023-04-01T05:35:39;99014.44;;;9.52;100.00
71567;BME280;59403;47.456;19.120;2023-04-01T05:38:06;99022.78;;;9.70;100.00
71567;BME280;59403;47.456;19.120;2023-04-01T05:40:33;99020.56;;;9.88;100.00
71567;BME280;59403;47.456;19.120;2023-04-01T05:43:00;99014.72;;;10.28;100.00
71567;BME280;59403;47.456;19.120;2023-04-01T05:45:27;99013.84;;;10.63;100.00
71567;BME280;59403;47.456;19.120;2023-04-01T05:47:54;99010.47;;;10.76;100.00
71567;BME280;59403;47.456;19.120;2023-04-01T05:50:22;99014.22;;;10.88;100.00
71567;BME280;59403;47.456;19.120;2023-04-01T05:52:49;99009.50;;;10.83;100.00
71567;BME280;59403;47.456;19.120;2023-04-01T05:55:16;99009.03;;;11.01;99.46
71567;BME280;59403;47.456;19.120;2023-04-01T05:57:44;99005.84;;;11.12;98.30
71567;BME280;59403;47.456;19.120;2023-04-01T06:00:14;99005.06;;;11.18;97.80
71567;BME280;59403;47.456;19.120;2023-04-01T06:02:41;99016.69;;;11.17;97.75
71567;BME280;59403;47.456;19.120;2023-04-01T06:05:15;99024.09;;;11.00;97.90
71567;BME280;59403;47.456;19.120;2023-04-01T06:11:36;99014.34;;;10.52;98.88
71567;BME280;59403;47.456;19.120;2023-04-01T06:14:15;99013.47;;;10.45;100.00
71567;BME280;59403;47.456;19.120;2023-04-01T06:16:59;99008.75;;;10.41;97.79
71567;BME280;59403;47.456;19.120;2023-04-01T06:28:07;98995.63;;;10.54;91.48
71567;BME280;59403;47.456;19.120;2023-04-01T06:30:44;98999.91;;;10.55;89.68
71567;BME280;59403;47.456;19.120;2023-04-01T06:33:34;99000.53;;;10.57;89.88
71567;BME280;59403;47.456;19.120;2023-04-01T06:36:42;99006.88;;;10.62;87.99
71567;BME280;59403;47.456;19.120;2023-04-01T06:39:31;99009.34;;;10.64;88.25
71567;BME280;59403;47.456;19.120;2023-04-01T06:42:15;99017.22;;;10.78;87.53
71567;BME280;59403;47.456;19.120;2023-04-01T06:44:55;99013.41;;;10.87;87.32
71567;BME280;59403;47.456;19.120;2023-04-01T06:47:34;99021.41;;;10.94;86.66
71567;BME280;59403;47.456;19.120;2023-04-01T06:50:11;99025.91;;;11.00;86.16
71567;BME280;59403;47.456;19.120;2023-04-01T06:52:50;99026.63;;;11.08;86.24
71567;BME280;59403;47.456;19.120;2023-04-01T06:55:27;99029.16;;;11.23;86.11
71567;BME280;59403;47.456;19.120;2023-04-01T06:57:59;99026.97;;;11.33;85.14
71567;BME280;59403;47.456;19.120;2023-04-01T07:00:32;99027.59;;;11.35;85.31
71567;BME280;59403;47.456;19.120;2023-04-01T07:03:06;99025.97;;;11.34;83.28
71567;BME280;59403;47.456;19.120;2023-04-01T07:05:37;99022.47;;;11.33;84.53
71567;BME280;59403;47.456;19.120;2023-04-01T07:08:09;99021.06;;;11.31;82.44
71567;BME280;59403;47.456;19.120;2023-04-01T07:10:43;99019.00;;;11.33;81.42
71567;BME280;59403;47.456;19.120;2023-04-01T07:13:15;99020.47;;;11.35;81.89
71567;BME280;59403;47.456;19.120;2023-04-01T07:15:57;99024.38;;;11.39;80.57
71567;BME280;59403;47.456;19.120;2023-04-01T07:18:32;99023.13;;;11.42;81.62
71567;BME280;59403;47.456;19.120;2023-04-01T07:21:01;99022.31;;;11.41;83.54
71567;BME280;59403;47.456;19.120;2023-04-01T07:23:32;99028.31;;;11.50;81.55
71567;BME280;59403;47.456;19.120;2023-04-01T07:26:08;99024.00;;;11.49;81.57
71567;BME280;59403;47.456;19.120;2023-04-01T07:28:37;99018.91;;;11.54;81.53
71567;BME280;59403;47.456;19.120;2023-04-01T07:31:15;99023.72;;;11.65;81.37
71567;BME280;59403;47.456;19.120;2023-04-01T07:33:53;99020.88;;;11.73;79.92
71567;BME280;59403;47.456;19.120;2023-04-01T07:36:25;99025.19;;;11.81;80.21
71567;BME280;59403;47.456;19.120;2023-04-01T07:39:04;99016.69;;;11.92;79.58
71567;BME280;59403;47.456;19.120;2023-04-01T07:41:43;99025.84;;;11.96;80.08
71567;BME280;59403;47.456;19.120;2023-04-01T07:44:17;99020.00;;;12.07;78.97
71567;BME280;59403;47.456;19.120;2023-04-01T07:47:07;99025.91;;;12.09;78.56
71567;BME280;59403;47.456;19.120;2023-04-01T07:49:44;99017.97;;;12.28;79.22
71567;BME280;59403;47.456;19.120;2023-04-01T07:52:22;99013.50;;;12.22;78.09
71567;BME280;59403;47.456;19.120;2023-04-01T07:54:55;99019.03;;;12.34;77.31
71567;BME280;59403;47.456;19.120;2023-04-01T07:57:29;99020.06;;;12.39;77.81
71567;BME280;59403;47.456;19.120;2023-04-01T08:00:05;99021.09;;;12.38;76.38
71567;BME280;59403;47.456;19.120;2023-04-01T08:02:48;99025.56;;;12.51;75.02
71567;BME280;59403;47.456;19.120;2023-04-01T08:05:24;99016.81;;;12.83;75.77
71567;BME280;59403;47.456;19.120;2023-04-01T08:07:58;99028.66;;;13.00;74.35
71567;BME280;59403;47.456;19.120;2023-04-01T08:10:35;99027.84;;;13.00;73.56
71567;BME280;59403;47.456;19.120;2023-04-01T08:13:14;99026.84;;;13.01;74.72
71567;BME280;59403;47.456;19.120;2023-04-01T08:15:51;99022.78;;;13.05;73.62
71567;BME280;59403;47.456;19.120;2023-04-01T08:18:29;99030.09;;;13.22;73.89
71567;BME280;59403;47.456;19.120;2023-04-01T08:21:03;99024.38;;;13.19;75.22
71567;BME280;59403;47.456;19.120;2023-04-01T08:23:36;99028.09;;;13.05;73.22
71567;BME280;59403;47.456;19.120;2023-04-01T08:26:06;99027.66;;;13.14;71.82
71567;BME280;59403;47.456;19.120;2023-04-01T08:28:40;99024.38;;;13.19;73.56
71567;BME280;59403;47.456;19.120;2023-04-01T08:31:11;99030.47;;;13.39;72.52
71567;BME280;59403;47.456;19.120;2023-04-01T08:33:42;99026.78;;;13.53;72.09
71567;BME280;59403;47.456;19.120;2023-04-01T08:36:14;99023.50;;;13.38;72.90
71567;BME280;59403;47.456;19.120;2023-04-01T08:38:43;99029.69;;;13.19;71.22
71567;BME280;59403;47.456;19.120;2023-04-01T08:41:40;99023.13;;;13.34;71.62
71567;BME280;59403;47.456;19.120;2023-04-01T08:44:46;99018.94;;;13.64;70.49
71567;BME280;59403;47.456;19.120;2023-04-01T08:54:07;99020.56;;;13.72;70.51
71567;BME280;59403;47.456;19.120;2023-04-01T08:56:42;99024.69;;;13.61;69.74
71567;BME280;59403;47.456;19.120;2023-04-01T08:59:28;99019.53;;;13.73;70.72
71567;BME280;59403;47.456;19.120;2023-04-01T09:05:15;99017.63;;;13.36;70.67
71567;BME280;59403;47.456;19.120;2023-04-01T09:07:55;99022.25;;;13.60;68.82
71567;BME280;59403;47.456;19.120;2023-04-01T09:10:42;99022.28;;;13.47;69.84
71567;BME280;59403;47.456;19.120;2023-04-01T09:13:31;99026.19;;;13.38;68.82
71567;BME280;59403;47.456;19.120;2023-04-01T09:16:35;99025.31;;;13.63;70.16
71567;BME280;59403;47.456;19.120;2023-04-01T09:19:24;99024.84;;;13.73;71.02
71567;BME280;59403;47.456;19.120;2023-04-01T09:21:59;99028.38;;;13.54;70.84
71567;BME280;59403;47.456;19.120;2023-04-01T09:24:56;99023.25;;;13.65;71.42
71567;BME280;59403;47.456;19.120;2023-04-01T09:27:28;99023.06;;;13.54;70.29
71567;BME280;59403;47.456;19.120;2023-04-01T09:30:27;99013.13;;;13.30;70.91
71567;BME280;59403;47.456;19.120;2023-04-01T09:36:12;99020.03;;;13.44;71.31
71567;BME280;59403;47.456;19.120;2023-04-01T09:38:55;99020.91;;;13.25;71.45
71567;BME280;59403;47.456;19.120;2023-04-01T09:41:30;99024.56;;;13.37;70.90
71567;BME280;59403;47.456;19.120;2023-04-01T09:44:02;99013.53;;;13.27;70.28
71567;BME280;59403;47.456;19.120;2023-04-01T09:46:54;99021.31;;;13.15;71.43
71567;BME280;59403;47.456;19.120;2023-04-01T09:49:50;99019.88;;;13.00;72.21
71567;BME280;59403;47.456;19.120;2023-04-01T09:52:28;99022.53;;;12.87;74.25
71567;BME280;59403;47.456;19.120;2023-04-01T09:55:10;99030.69;;;12.72;73.80
71567;BME280;59403;47.456;19.120;2023-04-01T09:58:09;99032.75;;;12.83;73.00
71567;BME280;59403;47.456;19.120;2023-04-01T10:00:55;99038.06;;;12.96;73.99
71567;BME280;59403;47.456;19.120;2023-04-01T10:10:19;99038.69;;;12.85;73.75
71567;BME280;59403;47.456;19.120;2023-04-01T10:13:00;99035.59;;;12.95;72.87
71567;BME280;59403;47.456;19.120;2023-04-01T10:16:09;99041.53;;;12.97;73.14
71567;BME280;59403;47.456;19.120;2023-04-01T10:19:15;99044.62;;;12.94;73.38
71567;BME280;59403;47.456;19.120;2023-04-01T10:22:04;99040.94;;;12.75;73.15
71567;BME280;59403;47.456;19.120;2023-04-01T10:24:53;99046.25;;;12.95;74.32
71567;BME280;59403;47.456;19.120;2023-04-01T10:31:00;99040.75;;;13.29;72.57
71567;BME280;59403;47.456;19.120;2023-04-01T10:34:02;99038.47;;;13.32;72.72
71567;BME280;59403;47.456;19.120;2023-04-01T10:36:47;99033.97;;;13.39;72.68
71567;BME280;59403;47.456;19.120;2023-04-01T10:39:34;99031.34;;;13.20;71.71
71567;BME280;59403;47.456;19.120;2023-04-01T10:42:27;99036.66;;;13.07;72.35
71567;BME280;59403;47.456;19.120;2023-04-01T10:45:18;99043.59;;;13.21;72.75
71567;BME280;59403;47.456;19.120;2023-04-01T10:48:15;99040.53;;;13.24;72.95
71567;BME280;59403;47.456;19.120;2023-04-01T10:51:04;99042.91;;;13.58;72.53
71567;BME280;59403;47.456;19.120;2023-04-01T10:53:42;99036.75;;;13.64;71.79
71567;BME280;59403;47.456;19.120;2023-04-01T10:56:39;99040.53;;;13.30;71.49
71567;BME280;59403;47.456;19.120;2023-04-01T10:59:45;99042.97;;;13.32;72.43
71567;BME280;59403;47.456;19.120;2023-04-01T11:18:29;99029.34;;;13.79;70.77
71567;BME280;59403;47.456;19.120;2023-04-01T11:21:37;99018.91;;;13.71;71.61
71567;BME280;59403;47.456;19.120;2023-04-01T11:27:19;99022.62;;;13.70;71.89
71567;BME280;59403;47.456;19.120;2023-04-01T11:30:26;99013.56;;;13.84;70.29
71567;BME280;59403;47.456;19.120;2023-04-01T11:33:00;99019.19;;;14.01;69.70
71567;BME280;59403;47.456;19.120;2023-04-01T11:36:15;99012.31;;;14.24;69.16
71567;BME280;59403;47.456;19.120;2023-04-01T11:39:00;99016.97;;;14.42;65.94
71567;BME280;59403;47.456;19.120;2023-04-01T11:41:35;99021.75;;;14.20;66.08
71567;BME280;59403;47.456;19.120;2023-04-01T11:44:16;99026.81;;;13.91;67.63
71567;BME280;59403;47.456;19.120;2023-04-01T11:46:56;99021.97;;;13.81;67.99
71567;BME280;59403;47.456;19.120;2023-04-01T11:49:50;99031.00;;;13.74;68.18
71567;BME280;59403;47.456;19.120;2023-04-01T11:52:30;99022.44;;;13.65;69.32
71567;BME280;59403;47.456;19.120;2023-04-01T11:55:06;99028.81;;;13.51;68.41
71567;BME280;59403;47.456;19.120;2023-04-01T11:57:51;99034.56;;;13.35;69.12
71567;BME280;59403;47.456;19.120;2023-04-01T12:01:03;99039.09;;;13.21;70.30
71567;BME280;59403;47.456;19.120;2023-04-01T12:03:45;99042.38;;;13.10;70.53
71567;BME280;59403;47.456;19.120;2023-04-01T12:06:16;99042.59;;;13.09;70.40
71567;BME280;59403;47.456;19.120;2023-04-01T12:08:54;99035.84;;;13.06;71.77
71567;BME280;59403;47.456;19.120;2023-04-01T12:11:29;99037.91;;;13.04;69.60
71567;BME280;59403;47.456;19.120;2023-04-01T12:14:05;99040.56;;;13.04;69.32
71567;BME280;59403;47.456;19.120;2023-04-01T12:16:57;99037.06;;;13.10;69.64
71567;BME280;59403;47.456;19.120;2023-04-01T12:19:32;99037.28;;;13.22;69.23
71567;BME280;59403;47.456;19.120;2023-04-01T12:22:29;99042.75;;;13.40;68.95
71567;BME280;59403;47.456;19.120;2023-04-01T12:25:13;99035.97;;;13.50;68.14
71567;BME280;59403;47.456;19.120;2023-04-01T12:27:48;99033.25;;;13.70;66.14
71567;BME280;59403;47.456;19.120;2023-04-01T12:30:34;99037.50;;;13.84;66.08
71567;BME280;59403;47.456;19.120;2023-04-01T12:36:18;99038.66;;;14.01;65.34
71567;BME280;59403;47.456;19.120;2023-04-01T12:38:57;99026.47;;;14.18;64.67
71567;BME280;59403;47.456;19.120;2023-04-01T12:41:39;99032.78;;;14.30;64.52
71567;BME280;59403;47.456;19.120;2023-04-01T12:44:27;99037.00;;;14.44;63.67
71567;BME280;59403;47.456;19.120;2023-04-01T12:47:27;99036.88;;;14.33;65.12
71567;BME280;59403;47.456;19.120;2023-04-01T12:50:16;99032.59;;;14.25;63.50
71567;BME280;59403;47.456;19.120;2023-04-01T12:52:59;99025.25;;;14.27;63.86
71567;BME280;59403;47.456;19.120;2023-04-01T12:55:49;99024.59;;;14.25;64.01
71567;BME280;59403;47.456;19.120;2023-04-01T12:58:46;99025.16;;;14.40;64.47
71567;BME280;59403;47.456;19.120;2023-04-01T13:04:44;99023.63;;;14.82;62.32
71567;BME280;59403;47.456;19.120;2023-04-01T13:10:20;99012.09;;;14.88;62.64
71567;BME280;59403;47.456;19.120;2023-04-01T13:15:50;99020.31;;;15.29;62.57
71567;BME280;59403;47.456;19.120;2023-04-01T13:18:27;99012.81;;;15.44;61.06
71567;BME280;59403;47.456;19.120;2023-04-01T13:21:05;99013.28;;;15.35;60.85
71567;BME280;59403;47.456;19.120;2023-04-01T13:23:51;99015.34;;;15.15;60.82
71567;BME280;59403;47.456;19.120;2023-04-01T13:26:27;99005.38;;;15.28;60.04
71567;BME280;59403;47.456;19.120;2023-04-01T13:28:59;99006.59;;;15.50;60.68
71567;BME280;59403;47.456;19.120;2023-04-01T13:31:55;99009.25;;;15.50;59.93
71567;BME280;59403;47.456;19.120;2023-04-01T13:34:39;99010.91;;;15.51;60.05
71567;BME280;59403;47.456;19.120;2023-04-01T13:37:22;99010.91;;;15.27;57.77
71567;BME280;59403;47.456;19.120;2023-04-01T13:40:04;99007.78;;;15.54;57.10
71567;BME280;59403;47.456;19.120;2023-04-01T13:42:43;99013.50;;;15.33;57.66
71567;BME280;59403;47.456;19.120;2023-04-01T13:45:15;99019.72;;;15.27;57.74
71567;BME280;59403;47.456;19.120;2023-04-01T13:48:22;99010.84;;;15.33;57.35
71567;BME280;59403;47.456;19.120;2023-04-01T13:51:10;99016.56;;;15.37;58.16
71567;BME280;59403;47.456;19.120;2023-04-01T13:54:03;99017.03;;;15.09;56.79
71567;BME280;59403;47.456;19.120;2023-04-01T13:56:42;99027.16;;;15.01;58.04
71567;BME280;59403;47.456;19.120;2023-04-01T13:59:40;99030.81;;;15.06;57.71
71567;BME280;59403;47.456;19.120;2023-04-01T14:02:31;99027.16;;;15.01;57.17
71567;BME280;59403;47.456;19.120;2023-04-01T14:05:16;99024.81;;;14.86;58.78
71567;BME280;59403;47.456;19.120;2023-04-01T14:07:59;99023.75;;;15.12;60.06
71567;BME280;59403;47.456;19.120;2023-04-01T14:10:35;99033.06;;;15.27;59.41
71567;BME280;59403;47.456;19.120;2023-04-01T14:13:13;99036.78;;;15.26;58.47
71567;BME280;59403;47.456;19.120;2023-04-01T14:15:59;99042.28;;;15.07;57.57
71567;BME280;59403;47.456;19.120;2023-04-01T14:18:52;99042.09;;;14.84;58.71
71567;BME280;59403;47.456;19.120;2023-04-01T14:21:46;99042.47;;;14.87;61.27
71567;BME280;59403;47.456;19.120;2023-04-01T14:24:36;99042.25;;;14.89;60.80
71567;BME280;59403;47.456;19.120;2023-04-01T14:27:36;99048.37;;;14.64;61.76
71567;BME280;59403;47.456;19.120;2023-04-01T14:30:27;99044.22;;;14.37;63.06
71567;BME280;59403;47.456;19.120;2023-04-01T14:33:03;99036.53;;;14.16;62.86
71567;BME280;59403;47.456;19.120;2023-04-01T14:35:38;99030.81;;;14.13;63.68
71567;BME280;59403;47.456;19.120;2023-04-01T14:38:33;99033.72;;;14.05;63.68
71567;BME280;59403;47.456;19.120;2023-04-01T14:41:18;99035.22;;;13.94;64.19
71567;BME280;59403;47.456;19.120;2023-04-01T14:47:28;99036.31;;;13.74;63.77
71567;BME280;59403;47.456;19.120;2023-04-01T14:50:06;99038.38;;;13.72;65.04
71567;BME280;59403;47.456;19.120;2023-04-01T14:52:36;99034.66;;;13.73;64.56